Time;durP1;ratioP1;P1;durP2;ratioP2;P2;SDS_P1;SDS_P2;PMS_P1;PMS_P2;Temp;Humidity;BMP_temperature;BMP_pressure;BME280_temperature;BME280_humidity;BME280_pressure;Samples;Min_cycle;Max_cycle;Signal;HPM_P1;HPM_P2
2022/06/25 05:10:34;;;;;;;3.53;0.20;;;18.30;99.90;;;;;;5312681;23;20813;-73
2022/06/25 05:13:11;;;;;;;3.17;0.20;;;18.30;99.90;;;;;;4932529;29;20032;-72
2022/06/25 05:15:39;;;;;;;1.20;0.70;;;18.30;99.90;;;;;;4929865;29;20035;-73
2022/06/25 05:18:06;;;;;;;1.40;0.80;;;18.30;99.90;;;;;;4929314;28;20039;-73
2022/06/25 05:20:35;;;;;;;0.80;0.80;;;18.30;99.90;;;;;;4928145;29;20103;-73
2022/06/25 05:23:01;;;;;;;2.03;1.55;;;18.20;99.90;;;;;;4922615;29;20070;-72
2022/06/25 05:25:28;;;;;;;1.30;1.10;;;18.20;99.90;;;;;;4933595;29;20118;-73
2022/06/25 05:37:59;;;;;;;1.15;0.70;;;18.20;99.90;;;;;;4932524;29;20050;-74
2022/06/25 05:40:25;;;;;;;0.60;0.60;;;18.20;99.90;;;;;;4931855;28;20016;-73
2022/06/25 05:43:01;;;;;;;1.98;0.38;;;18.00;99.90;;;;;;4927065;29;20045;-74
2022/06/25 05:45:31;;;;;;;0.60;0.40;;;18.00;99.90;;;;;;4930357;28;20067;-73
2022/06/25 05:48:00;;;;;;;1.83;0.40;;;18.00;99.90;;;;;;4948924;28;20023;-73
2022/06/25 05:50:31;;;;;;;0.30;0.30;;;17.90;99.90;;;;;;4936780;28;20028;-74
2022/06/25 05:52:58;;;;;;;1.67;0.40;;;18.00;99.90;;;;;;4943468;28;20727;-73
2022/06/25 05:55:26;;;;;;;2.05;0.28;;;18.00;99.90;;;;;;4936729;28;20032;-74
2022/06/25 05:57:52;;;;;;;0.40;0.30;;;18.10;99.90;;;;;;4927762;28;20097;-74
2022/06/25 06:00:26;;;;;;;1.42;0.35;;;18.00;99.90;;;;;;4934584;28;20027;-73
2022/06/25 06:02:52;;;;;;;0.60;0.40;;;18.00;99.90;;;;;;4927590;29;20158;-73
2022/06/25 06:05:19;;;;;;;1.00;0.60;;;18.10;99.90;;;;;;4934807;28;20107;-74
2022/06/25 06:07:49;;;;;;;1.17;0.30;;;18.10;99.90;;;;;;4930154;28;20034;-73
2022/06/25 06:10:15;;;;;;;0.70;0.30;;;18.00;99.90;;;;;;4931316;29;20031;-73
2022/06/25 06:12:41;;;;;;;0.50;0.40;;;18.10;99.90;;;;;;4932342;28;20038;-73
2022/06/25 06:15:08;;;;;;;0.88;0.50;;;18.10;99.90;;;;;;4928440;29;20035;-73
2022/06/25 06:17:35;;;;;;;0.82;0.40;;;18.10;99.90;;;;;;4932873;28;20027;-74
2022/06/25 06:20:01;;;;;;;0.65;0.65;;;18.20;99.90;;;;;;4926382;28;20027;-74
2022/06/25 06:22:30;;;;;;;1.60;0.52;;;18.10;99.90;;;;;;4934379;29;20026;-74
2022/06/25 06:24:57;;;;;;;0.30;0.30;;;18.20;99.90;;;;;;4930364;28;20058;-73
2022/06/25 06:27:25;;;;;;;0.52;0.50;;;18.20;99.90;;;;;;4932093;28;20051;-74
2022/06/25 06:29:50;;;;;;;0.70;0.30;;;18.30;99.90;;;;;;4929055;29;20035;-73
2022/06/25 06:32:16;;;;;;;1.05;0.52;;;18.40;99.90;;;;;;4949205;28;20034;-73
2022/06/25 07:43:14;;;;;;;0.30;0.30;;;21.70;99.90;;;;;;5490839;23;21100;-82
2022/06/25 08:24:31;;;;;;;0.88;0.80;;;20.90;99.90;;;;;;4968588;23;20459;-65
2022/06/25 08:26:56;;;;;;;2.50;0.80;;;21.00;99.90;;;;;;4939850;28;20019;-65
2022/06/25 08:29:22;;;;;;;1.13;0.65;;;21.00;99.90;;;;;;4931264;28;20043;-65
2022/06/25 08:31:48;;;;;;;0.65;0.65;;;21.10;99.90;;;;;;4930333;29;20490;-65
2022/06/25 08:34:14;;;;;;;5.22;1.05;;;21.10;99.90;;;;;;4932582;29;20078;-67
2022/06/25 08:36:39;;;;;;;4.00;1.05;;;21.10;99.90;;;;;;4934509;29;20081;-66
2022/06/25 08:39:05;;;;;;;0.95;0.70;;;21.10;99.90;;;;;;4932534;28;20496;-67
2022/06/25 08:41:31;;;;;;;2.38;0.70;;;21.20;99.90;;;;;;4947979;28;20031;-67
2022/06/25 08:43:57;;;;;;;3.92;0.80;;;21.10;99.90;;;;;;4929885;29;20037;-69
2022/06/25 08:46:23;;;;;;;1.15;0.88;;;21.00;99.90;;;;;;4944809;28;20043;-67
2022/06/25 08:48:50;;;;;;;1.35;0.80;;;21.00;99.90;;;;;;4927624;28;20035;-68
2022/06/25 08:51:20;;;;;;;1.02;0.50;;;21.00;99.90;;;;;;4930051;28;20035;-64
2022/06/25 08:53:47;;;;;;;1.80;0.77;;;21.00;99.90;;;;;;4932254;29;20609;-67
2022/06/25 08:56:14;;;;;;;0.75;0.75;;;21.10;99.90;;;;;;4929155;28;20027;-67
2022/06/25 08:58:43;;;;;;;1.58;0.75;;;21.10;99.90;;;;;;4931156;28;20030;-67
2022/06/25 09:01:09;;;;;;;1.92;0.60;;;21.20;99.90;;;;;;4926181;28;20028;-67
2022/06/25 09:03:35;;;;;;;1.48;0.55;;;21.20;99.90;;;;;;4929489;28;20028;-67
2022/06/25 09:06:18;;;;;;;0.70;0.60;;;21.30;99.90;;;;;;4926437;29;20175;-67
2022/06/25 09:09:11;;;;;;;0.55;0.55;;;21.30;99.90;;;;;;4932545;29;20935;-74
2022/06/25 09:12:19;;;;;;;0.55;0.40;;;21.40;99.90;;;;;;4950132;28;20043;-80
2022/06/25 09:17:20;;;;;;;1.42;0.50;;;21.30;99.90;;;;;;5492747;23;20403;-80
2022/06/25 09:25:00;;;;;;;0.65;0.60;;;20.90;99.90;;;;;;5806380;23;20111;-82
2022/06/25 09:27:37;;;;;;;0.65;0.45;;;20.70;99.90;;;;;;4967581;29;20008;-80
2022/06/25 09:30:32;;;;;;;;;;;20.70;99.90;;;;;;4957284;28;20031;-81
2022/06/25 09:33:19;;;;;;;0.70;0.57;;;20.60;99.90;;;;;;4953440;29;20272;-82
2022/06/25 09:38:26;;;;;;;2.17;0.63;;;20.50;99.90;;;;;;4983660;23;20028;-81
2022/06/25 09:40:59;;;;;;;1.35;0.65;;;20.40;99.90;;;;;;4947516;29;20100;-80
2022/06/25 10:22:07;;;;;;;1.52;0.50;;;20.50;99.90;;;;;;4906896;29;20052;-73
2022/06/25 10:24:34;;;;;;;0.60;0.60;;;20.50;99.90;;;;;;4912726;29;20429;-74
2022/06/25 10:27:01;;;;;;;1.42;0.50;;;20.60;99.90;;;;;;4910895;29;20507;-73
2022/06/25 10:29:31;;;;;;;2.13;0.90;;;20.70;99.90;;;;;;4926874;28;20400;-72
2022/06/25 10:32:15;;;;;;;1.77;0.68;;;20.70;99.90;;;;;;4922733;28;20075;-73
2022/06/25 10:34:58;;;;;;;3.45;0.50;;;20.80;99.90;;;;;;4907995;29;20099;-72
2022/06/25 10:37:25;;;;;;;0.35;0.35;;;20.90;99.90;;;;;;4913921;29;20033;-72
2022/06/25 10:39:55;;;;;;;1.73;1.00;;;20.90;99.90;;;;;;4915839;29;20038;-72
2022/06/25 10:45:11;;;;;;;2.13;0.47;;;21.00;99.90;;;;;;4905389;29;20067;-72
2022/06/25 10:47:57;;;;;;;2.40;0.60;;;21.10;99.90;;;;;;4924461;29;20142;-73
2022/06/25 10:50:23;;;;;;;1.75;0.50;;;21.20;99.90;;;;;;4935544;28;20091;-73
2022/06/25 10:53:05;;;;;;;2.08;0.70;;;21.40;99.90;;;;;;4914604;29;20019;-73
2022/06/25 10:55:36;;;;;;;1.48;0.47;;;21.30;99.90;;;;;;4914222;29;20023;-74
2022/06/25 10:58:15;;;;;;;0.60;0.60;;;21.40;99.90;;;;;;4905355;29;20080;-73
2022/06/25 11:00:47;;;;;;;1.95;0.70;;;21.50;99.90;;;;;;4926612;29;20038;-72
2022/06/25 11:03:14;;;;;;;1.85;0.50;;;21.60;99.90;;;;;;4924436;29;20023;-73
2022/06/25 11:05:42;;;;;;;0.55;0.55;;;21.80;99.90;;;;;;4930884;29;20028;-72
2022/06/25 11:08:08;;;;;;;0.85;0.70;;;21.90;99.90;;;;;;4908685;29;20028;-62
2022/06/25 11:23:31;;;;;;;1.38;0.40;;;22.40;98.30;;;;;;5941905;23;20029;-76
2022/06/25 11:37:16;;;;;;;0.50;0.50;;;23.60;95.80;;;;;;3070827;23;20051;-76
2022/06/25 11:39:45;;;;;;;0.80;0.50;;;23.50;95.40;;;;;;5346045;23;20030;-75
2022/06/25 11:42:17;;;;;;;0.63;0.47;;;23.50;95.20;;;;;;5032512;23;20047;-80
2022/06/25 11:47:46;;;;;;;0.50;0.40;;;23.70;95.00;;;;;;5153837;23;20053;-78
2022/06/25 11:50:13;;;;;;;0.70;0.65;;;23.50;94.70;;;;;;4921004;29;20020;-77
2022/06/25 11:52:58;;;;;;;1.17;0.50;;;23.50;95.10;;;;;;4920971;28;20088;-79
2022/06/25 11:55:25;;;;;;;0.80;0.70;;;23.40;95.20;;;;;;4919294;29;20070;-72
2022/06/25 11:57:51;;;;;;;1.00;0.88;;;23.30;94.90;;;;;;4920159;29;20096;-70
2022/06/25 12:00:20;;;;;;;0.98;0.50;;;23.40;95.20;;;;;;4898851;29;20020;-73
2022/06/25 12:03:22;;;;;;;0.60;0.57;;;23.60;95.20;;;;;;4905809;29;20032;-76
2022/06/25 12:06:06;;;;;;;0.75;0.60;;;23.60;94.60;;;;;;4911729;29;20036;-79
2022/06/25 12:08:33;;;;;;;1.55;0.95;;;23.50;94.50;;;;;;4910101;29;20343;-75
2022/06/25 12:11:02;;;;;;;1.45;0.40;;;23.40;94.80;;;;;;4904953;29;20478;-75
2022/06/25 12:13:31;;;;;;;0.50;0.50;;;23.40;94.80;;;;;;4918855;29;20035;-74
2022/06/25 12:16:03;;;;;;;0.75;0.60;;;23.40;94.70;;;;;;4920626;29;20031;-74
2022/06/25 12:18:37;;;;;;;0.40;0.40;;;23.50;94.60;;;;;;4904078;29;20051;-74
2022/06/25 12:21:06;;;;;;;1.33;0.65;;;23.50;94.60;;;;;;4903546;29;20521;-73
2022/06/25 12:26:43;;;;;;;2.63;0.88;;;23.30;94.90;;;;;;4928195;29;20039;-81
2022/06/25 12:29:27;;;;;;;0.50;0.50;;;23.20;95.00;;;;;;4999375;23;20052;-71
2022/06/25 12:31:56;;;;;;;0.88;0.80;;;23.10;95.10;;;;;;4898660;29;20028;-71
2022/06/25 12:34:25;;;;;;;0.88;0.70;;;23.10;95.40;;;;;;4903389;29;20040;-71
2022/06/25 12:36:52;;;;;;;2.55;0.70;;;23.00;95.40;;;;;;4917783;29;21038;-72
2022/06/25 12:39:37;;;;;;;0.70;0.70;;;23.10;95.60;;;;;;4899105;29;20032;-71
2022/06/25 12:42:09;;;;;;;0.60;0.50;;;23.30;95.70;;;;;;4899062;29;20024;-72
2022/06/25 12:44:41;;;;;;;1.15;1.05;;;23.50;95.60;;;;;;4904572;29;20051;-71
2022/06/25 12:47:11;;;;;;;1.25;0.68;;;23.90;95.50;;;;;;4902068;29;20032;-71
2022/06/25 12:49:47;;;;;;;1.65;0.90;;;24.20;95.00;;;;;;4904183;29;20020;-71
2022/06/25 12:52:39;;;;;;;1.35;0.70;;;24.40;94.70;;;;;;4898536;29;20070;-71
2022/06/25 12:55:06;;;;;;;0.95;0.70;;;24.70;94.10;;;;;;4912963;29;20036;-71
2022/06/25 12:57:37;;;;;;;1.00;0.70;;;24.80;94.20;;;;;;4904273;29;20028;-71
2022/06/25 13:00:16;;;;;;;2.38;0.70;;;24.80;93.80;;;;;;4901413;29;20020;-74
2022/06/25 13:02:41;;;;;;;1.77;0.98;;;25.00;93.60;;;;;;4918507;29;20036;-74
2022/06/25 13:05:08;;;;;;;2.05;0.75;;;24.80;93.30;;;;;;4916331;29;20513;-73
2022/06/25 13:07:35;;;;;;;0.80;0.80;;;24.90;93.20;;;;;;4922618;29;20079;-73
2022/06/25 13:10:02;;;;;;;1.10;0.80;;;25.10;92.90;;;;;;4920352;29;20386;-74
2022/06/25 13:12:30;;;;;;;0.65;0.63;;;25.30;92.50;;;;;;4907715;29;20092;-74
2022/06/25 13:14:58;;;;;;;1.92;1.00;;;25.20;92.20;;;;;;4922361;29;20020;-74
2022/06/25 13:17:25;;;;;;;1.20;1.08;;;25.20;92.10;;;;;;4914671;29;20028;-72
2022/06/25 13:19:50;;;;;;;1.20;1.10;;;24.80;92.30;;;;;;4921670;29;20059;-72
2022/06/25 13:22:17;;;;;;;1.35;1.27;;;24.60;93.20;;;;;;4918266;28;20359;-73
2022/06/25 13:24:44;;;;;;;3.08;1.98;;;24.60;93.20;;;;;;4906423;29;20087;-73
2022/06/25 13:27:11;;;;;;;1.25;0.90;;;24.60;93.30;;;;;;4917642;29;20032;-72
2022/06/25 13:29:36;;;;;;;2.85;1.02;;;24.50;93.00;;;;;;4922041;29;20032;-72
2022/06/25 13:32:03;;;;;;;1.38;0.93;;;24.60;93.40;;;;;;4918407;29;20076;-74
2022/06/25 13:34:34;;;;;;;0.88;0.85;;;24.60;93.60;;;;;;4903601;29;20024;-73
2022/06/25 13:37:01;;;;;;;2.45;1.00;;;24.80;93.30;;;;;;4904839;29;20091;-73
2022/06/25 13:39:26;;;;;;;1.48;0.90;;;25.10;93.10;;;;;;4903759;29;20055;-72
2022/06/25 13:41:54;;;;;;;2.25;1.20;;;25.30;92.70;;;;;;4903868;29;20410;-73
2022/06/25 13:44:21;;;;;;;1.25;0.90;;;25.50;92.60;;;;;;4901044;29;20032;-73
2022/06/25 13:46:47;;;;;;;1.42;1.20;;;25.60;92.00;;;;;;4920017;29;20056;-73
2022/06/25 13:49:13;;;;;;;0.80;0.80;;;25.60;92.00;;;;;;4901838;29;20037;-72
2022/06/25 13:51:40;;;;;;;1.83;0.90;;;25.60;92.30;;;;;;4906070;29;20024;-73
2022/06/25 13:54:05;;;;;;;1.23;1.00;;;25.40;91.90;;;;;;4901541;29;20038;-74
2022/06/25 13:56:33;;;;;;;3.70;1.08;;;25.10;92.10;;;;;;4902736;29;20024;-73
2022/06/25 13:58:59;;;;;;;2.13;1.30;;;24.80;92.40;;;;;;4919248;29;20056;-73
2022/06/25 14:01:28;;;;;;;3.47;2.10;;;24.70;93.20;;;;;;4913592;29;20143;-73
2022/06/25 14:03:56;;;;;;;1.65;1.17;;;24.60;93.40;;;;;;4907037;29;20111;-73
2022/06/25 14:06:36;;;;;;;1.95;1.20;;;24.60;93.20;;;;;;4900019;29;21078;-72
2022/06/25 14:09:03;;;;;;;1.90;1.20;;;24.60;93.80;;;;;;4908320;29;20035;-73
2022/06/25 14:11:29;;;;;;;1.10;1.00;;;24.50;93.60;;;;;;4899088;29;20029;-72
2022/06/25 14:13:59;;;;;;;1.70;1.60;;;24.30;93.70;;;;;;4907742;29;20144;-72
2022/06/25 14:16:25;;;;;;;3.20;2.33;;;24.30;94.10;;;;;;4899606;29;20021;-72
2022/06/25 14:18:52;;;;;;;1.67;1.33;;;24.30;94.00;;;;;;4917435;29;21257;-72
2022/06/25 14:21:18;;;;;;;1.50;1.23;;;24.40;94.30;;;;;;4914130;29;20027;-73
2022/06/25 14:23:44;;;;;;;1.40;1.20;;;24.40;94.40;;;;;;4904710;29;20051;-72
2022/06/25 14:26:12;;;;;;;1.95;1.33;;;24.50;94.20;;;;;;4896653;29;21321;-73
2022/06/25 14:28:37;;;;;;;1.08;1.00;;;24.60;94.20;;;;;;4904896;29;20054;-73
2022/06/25 14:31:06;;;;;;;1.23;1.23;;;24.70;94.00;;;;;;4906143;29;20032;-73
2022/06/25 14:33:34;;;;;;;3.00;1.42;;;24.70;94.20;;;;;;4916810;29;20079;-72
2022/06/25 14:44:17;;;;;;;1.70;1.60;;;24.80;93.60;;;;;;4901655;29;20035;-72
2022/06/25 14:46:43;;;;;;;1.33;1.23;;;24.80;93.90;;;;;;4907106;29;20083;-72
2022/06/25 14:49:09;;;;;;;1.05;1.05;;;24.80;93.80;;;;;;4900154;29;20032;-72
2022/06/25 14:51:36;;;;;;;1.42;1.33;;;24.80;94.20;;;;;;4904029;29;20441;-72
2022/06/25 14:54:02;;;;;;;1.67;1.30;;;24.80;93.80;;;;;;4903736;29;20052;-72
2022/06/25 14:56:29;;;;;;;1.23;1.13;;;24.70;94.30;;;;;;4912476;29;20048;-72
2022/06/25 14:58:54;;;;;;;1.40;1.30;;;24.50;94.30;;;;;;4904312;29;20067;-72
2022/06/25 15:01:21;;;;;;;1.20;1.10;;;24.60;94.10;;;;;;4913274;28;20418;-72
2022/06/25 15:03:48;;;;;;;1.40;1.30;;;24.50;93.80;;;;;;4902073;29;20028;-72
2022/06/25 15:06:17;;;;;;;1.60;1.10;;;24.50;94.10;;;;;;4898937;29;20052;-72
2022/06/25 15:08:43;;;;;;;1.33;1.23;;;24.50;94.30;;;;;;4917253;29;20039;-72
2022/06/25 15:11:10;;;;;;;2.65;1.60;;;24.40;94.50;;;;;;4898941;29;20087;-72
2022/06/25 15:13:36;;;;;;;1.13;1.00;;;24.40;94.30;;;;;;4905277;29;20032;-72
2022/06/25 15:16:04;;;;;;;1.10;1.00;;;24.40;94.30;;;;;;4903540;29;20017;-72
2022/06/25 15:18:30;;;;;;;2.15;1.33;;;24.40;94.30;;;;;;4900331;29;20035;-72
2022/06/25 15:20:57;;;;;;;1.52;1.40;;;24.40;94.10;;;;;;4900049;29;20111;-72
2022/06/25 15:23:24;;;;;;;2.08;1.48;;;24.50;94.20;;;;;;4897509;29;20068;-72
2022/06/25 15:25:50;;;;;;;1.67;1.10;;;24.60;94.20;;;;;;4905953;29;20027;-72
2022/06/25 15:28:16;;;;;;;2.75;1.10;;;24.50;94.00;;;;;;4913850;29;20039;-72
2022/06/25 15:30:43;;;;;;;1.33;1.13;;;24.50;94.00;;;;;;4901308;29;20059;-72
2022/06/25 15:33:09;;;;;;;1.45;1.33;;;24.60;94.10;;;;;;4902755;29;20024;-73
2022/06/25 15:35:36;;;;;;;1.17;1.10;;;24.50;94.00;;;;;;4904091;29;20028;-73
2022/06/25 15:38:06;;;;;;;1.20;1.10;;;24.50;94.20;;;;;;4902553;29;20132;-73
2022/06/25 15:40:32;;;;;;;2.45;1.60;;;24.60;94.30;;;;;;4898959;29;20024;-72
2022/06/25 15:43:00;;;;;;;1.73;1.40;;;24.70;94.10;;;;;;4903416;29;20035;-72
2022/06/25 15:45:26;;;;;;;0.90;0.90;;;24.70;94.30;;;;;;4915375;29;20032;-71
2022/06/25 15:47:53;;;;;;;1.45;1.30;;;24.60;94.40;;;;;;4917000;29;20040;-72
2022/06/25 15:50:19;;;;;;;0.98;0.98;;;24.60;94.50;;;;;;4913439;29;20562;-72
2022/06/25 15:52:46;;;;;;;1.20;1.20;;;24.50;94.60;;;;;;4904468;29;20036;-72
2022/06/25 15:55:11;;;;;;;1.30;1.20;;;24.30;94.90;;;;;;4898444;29;20456;-72
2022/06/25 15:57:37;;;;;;;1.35;1.23;;;24.30;94.90;;;;;;4903289;29;20059;-72
2022/06/25 16:00:04;;;;;;;1.27;1.10;;;24.20;95.30;;;;;;4901482;29;20028;-72
2022/06/25 16:02:29;;;;;;;2.15;1.30;;;24.20;94.90;;;;;;4912832;29;20103;-72
2022/06/25 16:04:55;;;;;;;1.25;1.20;;;24.20;95.20;;;;;;4905613;29;20099;-71
2022/06/25 16:07:23;;;;;;;1.40;1.30;;;24.20;94.60;;;;;;4899058;29;20142;-72
2022/06/25 16:09:50;;;;;;;2.45;1.13;;;24.20;95.20;;;;;;4900585;29;20051;-71
2022/06/25 16:12:16;;;;;;;1.08;0.98;;;24.20;95.10;;;;;;4898773;29;20094;-72
2022/06/25 16:14:42;;;;;;;2.78;1.10;;;24.30;94.90;;;;;;4901712;29;20050;-71
2022/06/25 16:17:08;;;;;;;1.88;1.40;;;24.30;94.80;;;;;;4904641;29;20378;-71
2022/06/25 16:19:33;;;;;;;2.58;1.10;;;24.40;94.60;;;;;;4898243;29;20028;-72
2022/06/25 16:22:02;;;;;;;;;;;24.40;94.50;;;;;;4924337;29;20024;-72
2022/06/25 16:24:28;;;;;;;1.48;1.10;;;24.30;94.50;;;;;;4918334;29;19907;-71
2022/06/25 16:26:54;;;;;;;3.05;1.05;;;24.30;94.70;;;;;;4904415;29;20130;-72
2022/06/25 16:29:22;;;;;;;;;;;24.20;94.70;;;;;;4903868;29;20028;-72
2022/06/25 16:31:50;;;;;;;0.85;0.85;;;24.20;94.70;;;;;;4904578;29;19907;-72
2022/06/25 16:34:19;;;;;;;1.30;1.20;;;24.20;94.70;;;;;;4903951;29;20373;-72
2022/06/25 16:36:46;;;;;;;1.50;0.95;;;24.20;94.90;;;;;;4906967;29;20073;-72
2022/06/25 16:39:12;;;;;;;2.33;1.00;;;24.10;94.70;;;;;;4903216;29;20107;-72
2022/06/25 16:41:37;;;;;;;1.23;0.80;;;24.10;95.10;;;;;;4906167;29;20107;-72
2022/06/25 16:44:04;;;;;;;1.67;1.08;;;24.00;95.20;;;;;;4907802;29;20133;-72
2022/06/25 16:46:43;;;;;;;1.83;1.33;;;24.00;95.30;;;;;;4903995;29;20446;-72
2022/06/25 16:49:13;;;;;;;2.53;1.10;;;23.90;95.50;;;;;;4904814;29;20115;-72
2022/06/25 16:51:44;;;;;;;2.58;1.20;;;23.90;95.80;;;;;;4906642;29;20032;-72
2022/06/25 16:54:12;;;;;;;1.42;1.33;;;23.90;95.60;;;;;;4906130;29;20063;-71
2022/06/25 16:56:38;;;;;;;2.70;1.10;;;23.80;95.80;;;;;;4913888;29;20036;-61
2022/06/25 16:59:04;;;;;;;1.77;1.23;;;23.80;95.90;;;;;;4906220;29;20047;-60
2022/06/25 17:01:30;;;;;;;3.65;1.30;;;23.70;96.30;;;;;;4899703;29;20036;-60
2022/06/25 17:03:59;;;;;;;;;;;23.60;96.50;;;;;;4905149;29;20024;-60
2022/06/25 17:06:29;;;;;;;7.13;1.40;;;23.60;96.70;;;;;;4899720;29;19915;-60
2022/06/25 17:09:03;;;;;;;4.22;1.25;;;23.60;96.80;;;;;;4906865;29;20381;-73
2022/06/25 17:11:32;;;;;;;2.28;1.27;;;23.60;96.60;;;;;;4916468;29;20064;-75
2022/06/25 17:14:00;;;;;;;1.60;1.05;;;23.60;97.00;;;;;;4904385;29;20535;-71
2022/06/25 17:16:28;;;;;;;1.83;1.23;;;23.50;97.10;;;;;;4900152;29;20024;-72
2022/06/25 17:18:54;;;;;;;1.10;1.00;;;23.50;97.40;;;;;;4909583;29;20024;-72
2022/06/25 17:21:21;;;;;;;2.08;1.38;;;23.50;97.40;;;;;;4918937;29;20523;-71
2022/06/25 17:23:47;;;;;;;2.28;1.30;;;23.40;97.80;;;;;;4922948;29;20110;-71
2022/06/25 17:26:14;;;;;;;1.58;1.10;;;23.40;97.90;;;;;;4922488;28;20035;-71
2022/06/25 17:28:40;;;;;;;2.97;1.20;;;23.40;97.90;;;;;;4917435;29;20036;-71
2022/06/25 17:31:06;;;;;;;2.22;1.35;;;23.40;97.90;;;;;;4922083;29;20066;-71
2022/06/25 17:33:32;;;;;;;1.40;1.27;;;23.40;97.90;;;;;;4919609;29;20378;-71
2022/06/25 17:35:59;;;;;;;1.58;1.40;;;23.40;98.10;;;;;;4939260;28;20058;-70
2022/06/25 17:38:25;;;;;;;1.65;1.20;;;23.40;98.20;;;;;;4919009;29;20064;-69
2022/06/25 17:40:51;;;;;;;2.50;1.40;;;23.30;98.40;;;;;;4919310;29;20024;-69
2022/06/25 17:43:17;;;;;;;5.00;1.33;;;23.30;98.40;;;;;;4920116;29;20121;-70
2022/06/25 17:45:43;;;;;;;1.13;1.10;;;23.10;98.40;;;;;;4918504;29;20562;-69
2022/06/25 17:48:09;;;;;;;1.10;1.05;;;23.20;98.70;;;;;;4923043;29;20051;-69
2022/06/25 17:50:35;;;;;;;1.45;1.35;;;23.20;98.50;;;;;;4916102;29;20028;-69
2022/06/25 17:53:00;;;;;;;;;;;23.20;98.60;;;;;;4921312;29;20114;-68
2022/06/25 17:55:26;;;;;;;1.42;1.33;;;23.20;98.50;;;;;;4919585;29;20628;-69
2022/06/25 17:57:52;;;;;;;1.80;1.50;;;23.10;99.30;;;;;;4918650;29;20031;-69
2022/06/25 18:00:22;;;;;;;1.55;1.33;;;23.00;99.70;;;;;;4920401;29;20020;-69
2022/06/25 18:02:48;;;;;;;1.90;1.63;;;23.00;99.90;;;;;;4933511;28;20690;-69
2022/06/25 18:05:15;;;;;;;1.95;1.30;;;23.00;99.90;;;;;;4919763;29;20027;-69
2022/06/25 18:07:41;;;;;;;3.10;1.27;;;23.00;99.90;;;;;;4918540;29;20086;-70
2022/06/25 18:10:08;;;;;;;2.35;1.60;;;23.00;99.90;;;;;;4920905;29;20693;-69
2022/06/25 18:12:36;;;;;;;1.60;1.40;;;23.00;99.90;;;;;;4917927;29;20024;-69
2022/06/25 18:15:03;;;;;;;1.60;1.50;;;23.00;99.90;;;;;;4922572;29;20027;-70
2022/06/25 18:17:29;;;;;;;1.63;1.52;;;22.90;99.90;;;;;;4915650;29;20075;-69
2022/06/25 18:19:56;;;;;;;4.57;1.60;;;22.90;99.90;;;;;;4917132;29;20024;-69
2022/06/25 18:22:22;;;;;;;1.35;1.25;;;22.80;99.90;;;;;;4921020;29;20028;-69
2022/06/25 18:24:48;;;;;;;2.97;1.30;;;22.80;99.90;;;;;;4920565;29;20508;-69
2022/06/25 18:27:14;;;;;;;3.05;1.33;;;22.90;99.90;;;;;;4919085;29;20028;-69
2022/06/25 18:29:41;;;;;;;1.95;1.48;;;22.80;99.90;;;;;;4921201;29;20090;-69
2022/06/25 18:32:07;;;;;;;1.40;1.30;;;22.50;99.90;;;;;;4915627;29;20067;-69
2022/06/25 18:34:33;;;;;;;1.38;1.27;;;22.30;99.90;;;;;;4921460;29;20030;-69
2022/06/25 18:36:59;;;;;;;1.67;1.55;;;22.10;99.90;;;;;;4932142;29;20355;-69
2022/06/25 18:39:26;;;;;;;2.17;1.40;;;21.90;99.90;;;;;;4920248;29;20052;-70
2022/06/25 18:41:51;;;;;;;1.60;1.40;;;21.90;99.90;;;;;;4917270;29;20841;-69
2022/06/25 18:44:17;;;;;;;1.75;1.65;;;21.90;99.90;;;;;;4919782;29;20020;-69
2022/06/25 18:46:43;;;;;;;1.98;1.77;;;22.00;99.90;;;;;;4920027;29;20058;-69
2022/06/25 18:49:08;;;;;;;2.72;1.58;;;22.00;99.90;;;;;;4917137;29;20472;-69
2022/06/25 18:51:35;;;;;;;2.63;2.03;;;22.00;99.90;;;;;;4920086;29;20524;-69
2022/06/25 18:54:02;;;;;;;1.70;1.60;;;22.00;99.90;;;;;;4918282;29;20431;-69
2022/06/25 18:56:29;;;;;;;1.75;1.50;;;21.90;99.90;;;;;;4925231;29;20082;-69
2022/06/25 18:58:55;;;;;;;;;;;21.90;99.90;;;;;;4914183;29;20485;-70
2022/06/25 19:01:22;;;;;;;1.52;1.40;;;21.80;99.90;;;;;;4921565;29;19921;-69
2022/06/25 19:03:50;;;;;;;1.23;1.13;;;21.80;99.90;;;;;;4923987;28;20039;-70
2022/06/25 19:06:16;;;;;;;1.50;1.40;;;21.70;99.90;;;;;;4919656;29;20028;-70
2022/06/25 19:08:42;;;;;;;1.45;1.30;;;21.70;99.90;;;;;;4923003;29;20481;-70
2022/06/25 19:11:07;;;;;;;1.70;1.33;;;21.70;99.90;;;;;;4916866;29;20043;-70
2022/06/25 19:13:33;;;;;;;1.70;1.30;;;21.70;99.90;;;;;;4936224;28;20032;-70
2022/06/25 19:15:59;;;;;;;1.70;1.27;;;21.60;99.90;;;;;;4916731;29;20032;-70
2022/06/25 19:18:25;;;;;;;1.30;1.17;;;21.60;99.90;;;;;;4920749;28;20130;-69
2022/06/25 19:20:51;;;;;;;1.80;1.70;;;21.60;99.90;;;;;;4917650;28;20398;-70
2022/06/25 19:23:16;;;;;;;1.98;1.85;;;21.60;99.90;;;;;;4914823;29;20102;-70
2022/06/25 19:25:42;;;;;;;2.67;1.73;;;21.60;99.90;;;;;;4922353;29;20054;-69
2022/06/25 19:28:08;;;;;;;2.40;1.35;;;21.60;99.90;;;;;;4933258;28;20114;-69
2022/06/25 19:30:35;;;;;;;1.50;1.40;;;21.50;99.90;;;;;;4920134;29;20159;-70
2022/06/25 19:33:00;;;;;;;1.20;1.10;;;21.50;99.90;;;;;;4919783;29;20413;-70
2022/06/25 19:35:26;;;;;;;2.78;1.30;;;21.50;99.90;;;;;;4925254;29;20473;-72
2022/06/25 19:37:54;;;;;;;;;;;21.50;99.90;;;;;;4940897;28;20039;-76
2022/06/25 19:40:29;;;;;;;2.88;1.20;;;21.40;99.90;;;;;;4922308;29;20215;-75
2022/06/25 19:42:57;;;;;;;1.40;1.25;;;21.50;99.90;;;;;;4925555;29;20027;-75
2022/06/25 19:45:25;;;;;;;1.00;1.00;;;21.50;99.90;;;;;;4924598;28;20027;-75
2022/06/25 19:47:52;;;;;;;3.35;1.08;;;21.40;99.90;;;;;;4924143;29;20497;-75
2022/06/25 19:50:21;;;;;;;2.17;1.10;;;21.40;99.90;;;;;;4921174;28;21113;-75
2022/06/25 19:52:47;;;;;;;2.42;1.25;;;21.30;99.90;;;;;;4922212;29;20032;-75
2022/06/25 19:55:17;;;;;;;2.00;1.63;;;21.20;99.90;;;;;;4935895;28;20457;-76
2022/06/25 19:57:42;;;;;;;1.67;1.40;;;21.10;99.90;;;;;;4942200;28;20035;-75
2022/06/25 20:00:10;;;;;;;2.28;1.40;;;21.10;99.90;;;;;;4924556;29;20071;-75
2022/06/25 20:02:37;;;;;;;2.38;1.50;;;21.00;99.90;;;;;;4928936;29;20040;-75
2022/06/25 20:05:03;;;;;;;2.90;1.60;;;21.10;99.90;;;;;;4938082;28;20105;-76
2022/06/25 20:07:29;;;;;;;;;;;21.10;99.90;;;;;;4932737;29;20038;-75
2022/06/25 20:09:56;;;;;;;1.70;1.30;;;21.10;99.90;;;;;;4927253;29;20436;-75
2022/06/25 20:12:21;;;;;;;1.42;1.33;;;21.10;99.90;;;;;;4919719;28;20027;-75
2022/06/25 20:14:47;;;;;;;3.08;1.17;;;21.10;99.90;;;;;;4917008;29;20089;-76
2022/06/25 20:17:13;;;;;;;1.58;1.27;;;21.20;99.90;;;;;;4914042;29;20051;-76
2022/06/25 20:19:41;;;;;;;1.98;1.20;;;21.20;99.90;;;;;;4933797;28;20800;-76
2022/06/25 20:22:11;;;;;;;1.08;1.08;;;21.20;99.90;;;;;;4939157;28;20036;-76
2022/06/25 20:24:37;;;;;;;2.15;1.10;;;21.20;99.90;;;;;;4921870;29;20051;-76
2022/06/25 20:27:05;;;;;;;3.28;1.25;;;21.20;99.90;;;;;;4937043;28;20489;-77
2022/06/25 20:29:33;;;;;;;1.42;1.33;;;21.20;99.90;;;;;;4926041;29;20481;-76
2022/06/25 20:32:02;;;;;;;5.30;2.00;;;21.10;99.90;;;;;;4927553;29;20024;-76
2022/06/25 20:34:29;;;;;;;1.73;1.60;;;21.00;99.90;;;;;;4941711;28;20437;-75
2022/06/25 20:36:55;;;;;;;3.25;1.20;;;21.00;99.90;;;;;;4920606;29;20063;-76
2022/06/25 20:39:23;;;;;;;1.98;1.35;;;21.00;99.90;;;;;;4927741;29;20023;-76
2022/06/25 20:41:49;;;;;;;3.92;1.23;;;21.00;99.90;;;;;;4919984;29;20454;-76
2022/06/25 20:44:18;;;;;;;1.45;1.30;;;21.00;99.90;;;;;;4925553;29;20049;-76
2022/06/25 20:46:43;;;;;;;2.25;1.25;;;21.00;99.90;;;;;;4935972;28;20052;-76
2022/06/25 20:49:10;;;;;;;0.98;0.98;;;21.00;99.90;;;;;;4923767;29;20074;-75
2022/06/25 20:51:40;;;;;;;1.23;1.00;;;21.00;99.90;;;;;;4937018;28;20035;-76
2022/06/25 20:57:32;;;;;;;1.35;1.15;;;21.00;99.90;;;;;;4927627;29;20035;-76
2022/06/25 21:00:06;;;;;;;2.20;1.38;;;21.00;99.90;;;;;;4923245;29;20093;-76
2022/06/25 21:08:19;;;;;;;1.98;1.20;;;21.00;99.90;;;;;;4924675;29;20503;-76
2022/06/25 21:10:45;;;;;;;1.95;1.10;;;21.00;99.90;;;;;;4921510;29;20047;-77
2022/06/25 21:13:17;;;;;;;1.30;1.20;;;21.00;99.90;;;;;;4921288;29;20023;-75
2022/06/25 21:15:44;;;;;;;1.13;0.95;;;21.10;99.90;;;;;;4919874;29;20068;-76
2022/06/25 21:18:11;;;;;;;1.60;1.33;;;21.00;99.90;;;;;;4935341;28;20027;-75
2022/06/25 21:20:42;;;;;;;1.73;1.25;;;21.00;99.90;;;;;;4926433;29;20991;-75
2022/06/25 21:23:11;;;;;;;2.33;1.33;;;21.10;99.90;;;;;;4935257;28;20039;-76
2022/06/25 21:25:43;;;;;;;1.90;1.75;;;21.20;99.90;;;;;;4936352;28;20536;-76
2022/06/25 21:28:09;;;;;;;1.13;0.90;;;21.20;99.90;;;;;;4924228;29;20055;-76
2022/06/25 21:30:35;;;;;;;1.30;1.20;;;21.20;99.90;;;;;;4923651;29;20059;-76
2022/06/25 21:33:12;;;;;;;1.23;1.10;;;21.20;99.90;;;;;;4924499;29;20101;-76
2022/06/25 21:35:39;;;;;;;1.00;1.00;;;21.20;99.90;;;;;;4921870;29;20054;-76
2022/06/25 21:38:09;;;;;;;1.38;1.27;;;21.20;99.90;;;;;;4926105;29;20710;-75
2022/06/25 21:40:44;;;;;;;2.42;0.98;;;21.20;99.90;;;;;;4923934;29;20026;-75